Time;durP1;ratioP1;P1;durP2;ratioP2;P2;SDS_P1;SDS_P2;PMS_P1;PMS_P2;Temp;Humidity;BMP_temperature;BMP_pressure;BME280_temperature;BME280_humidity;BME280_pressure;Samples;Min_cycle;Max_cycle;Signal;HPM_P1;HPM_P2
2022/08/24 00:01:20;;;;;;;7.50;6.18;;;;;;;18.64;83.58;68846.16;4901007;29;20048;-76
2022/08/24 00:03:46;;;;;;;8.77;6.40;;;;;;;18.63;83.74;68845.59;4899414;29;20060;-75
2022/08/24 00:06:16;;;;;;;7.93;6.57;;;;;;;18.55;83.99;68839.16;4897945;29;20070;-77
2022/08/24 00:08:42;;;;;;;9.75;6.97;;;;;;;18.51;84.33;68831.88;4900039;29;20096;-77
2022/08/24 00:11:08;;;;;;;7.03;6.32;;;;;;;18.48;84.45;68823.06;4899555;29;20044;-77
2022/08/24 00:13:34;;;;;;;11.65;6.50;;;;;;;18.44;84.30;68823.88;4900404;29;20048;-76
2022/08/24 00:16:00;;;;;;;10.65;7.38;;;;;;;18.39;84.70;68823.59;4898586;29;20104;-75
2022/08/24 00:18:25;;;;;;;10.30;6.80;;;;;;;;;;4898406;29;20053;-76
2022/08/24 00:20:51;;;;;;;9.05;6.80;;;;;;;18.36;85.08;68814.78;4892271;29;20049;-76
2022/08/24 00:23:17;;;;;;;9.23;7.15;;;;;;;;;;4893062;29;20048;-76
2022/08/24 00:25:42;;;;;;;10.88;7.28;;;;;;;18.37;85.03;68815.91;4890915;29;20044;-76
2022/08/24 00:28:08;;;;;;;8.13;6.68;;;;;;;18.39;84.82;68818.19;4887528;29;20040;-76
2022/08/24 00:30:34;;;;;;;8.02;6.55;;;;;;;18.30;84.73;68807.91;4891421;29;20045;-76
2022/08/24 00:32:59;;;;;;;8.40;7.60;;;;;;;;;;4892908;29;20043;-76
2022/08/24 00:35:25;;;;;;;8.95;7.95;;;;;;;18.06;86.70;68787.03;4906184;29;20059;-76
2022/08/24 00:37:52;;;;;;;9.60;8.35;;;;;;;18.03;87.34;68778.22;4891381;29;20049;-76
2022/08/24 00:40:32;;;;;;;9.27;8.02;;;;;;;18.07;86.43;68787.59;4891260;29;21697;-76
2022/08/24 00:43:02;;;;;;;9.00;7.80;;;;;;;18.02;86.78;68771.69;4890879;29;20036;-75
2022/08/24 00:45:28;;;;;;;15.98;8.57;;;;;;;18.08;86.23;68783.38;4891097;29;20051;-76
2022/08/24 00:48:02;;;;;;;13.10;8.30;;;;;;;18.03;86.51;68778.78;4893506;29;20044;-76
2022/08/24 00:50:37;;;;;;;14.38;12.52;;;;;;;18.01;86.42;68775.94;4891545;29;20100;-76
2022/08/24 00:53:10;;;;;;;15.10;11.40;;;;;;;17.94;86.47;68768.53;4890465;29;20060;-76
2022/08/24 00:55:40;;;;;;;11.90;9.55;;;;;;;17.77;87.91;68749.66;4890915;29;20069;-76
2022/08/24 00:58:12;;;;;;;12.60;9.18;;;;;;;;;;4885243;29;20051;-76
2022/08/24 01:00:45;;;;;;;10.43;9.30;;;;;;;17.74;87.79;68745.69;4888671;29;20136;-76
2022/08/24 01:03:12;;;;;;;11.30;9.35;;;;;;;17.72;87.84;68743.97;4890662;29;20044;-75
2022/08/24 01:05:38;;;;;;;13.75;9.43;;;;;;;;;;4890301;29;20051;-76
2022/08/24 01:08:06;;;;;;;15.02;11.18;;;;;;;17.72;88.11;68743.38;4888874;29;20045;-76
2022/08/24 01:11:07;;;;;;;11.43;9.23;;;;;;;17.68;88.04;68738.84;4891272;29;20048;-76
2022/08/24 01:13:33;;;;;;;11.43;9.63;;;;;;;;;;4897285;29;20048;-76
2022/08/24 01:16:03;;;;;;;13.27;9.38;;;;;;;17.50;88.58;68719.44;4889195;29;20067;-76
2022/08/24 01:18:48;;;;;;;11.07;8.35;;;;;;;17.46;88.97;68714.84;4891454;29;20116;-76
2022/08/24 01:21:17;;;;;;;9.45;8.40;;;;;;;17.46;89.27;68714.28;4889941;29;20056;-76
2022/08/24 01:24:04;;;;;;;10.77;8.63;;;;;;;17.47;89.15;68720.81;4879180;29;20049;-75
2022/08/24 01:26:49;;;;;;;12.13;8.50;;;;;;;17.45;88.99;68713.16;4891785;29;20061;-76
2022/08/24 01:29:22;;;;;;;9.40;8.48;;;;;;;17.38;89.54;68705.75;4889495;29;20465;-75
2022/08/24 01:31:47;;;;;;;14.63;8.48;;;;;;;;;;4891176;29;20063;-75
2022/08/24 01:34:13;;;;;;;11.10;7.80;;;;;;;17.40;88.92;68708.00;4887930;29;20136;-75
2022/08/24 01:36:44;;;;;;;10.02;7.90;;;;;;;17.36;89.17;68703.47;4890654;29;20056;-75
2022/08/24 01:39:20;;;;;;;10.65;7.75;;;;;;;17.32;89.63;68701.56;4888115;29;20424;-75
2022/08/24 01:41:45;;;;;;;10.45;7.65;;;;;;;;;;4893295;29;20041;-76
2022/08/24 01:44:11;;;;;;;9.65;7.65;;;;;;;17.40;89.23;68708.00;4881081;29;20048;-76
2022/08/24 01:46:36;;;;;;;9.23;7.57;;;;;;;;;;4884806;29;20055;-76
2022/08/24 01:49:02;;;;;;;10.63;7.97;;;;;;;17.29;89.62;68698.75;4889535;29;20083;-75
2022/08/24 01:51:30;;;;;;;10.50;7.85;;;;;;;;;;4876042;29;20535;-75
2022/08/24 01:53:57;;;;;;;10.73;8.45;;;;;;;;;;4883494;29;20048;-75
2022/08/24 01:56:22;;;;;;;9.73;7.97;;;;;;;17.17;90.45;68685.03;4879574;29;20077;-75
2022/08/24 01:58:48;;;;;;;10.95;8.30;;;;;;;;;;4872065;29;20159;-75
2022/08/24 02:01:16;;;;;;;11.15;7.97;;;;;;;17.17;90.04;68684.47;4871554;29;20049;-75
2022/08/24 02:03:42;;;;;;;11.93;8.60;;;;;;;17.16;90.28;68681.22;4872704;29;20044;-75
2022/08/24 02:06:07;;;;;;;9.40;8.20;;;;;;;;;;4873184;29;20136;-75
2022/08/24 02:08:34;;;;;;;10.27;8.20;;;;;;;17.09;90.29;68667.84;4879639;29;20139;-75
2022/08/24 02:11:00;;;;;;;10.82;9.20;;;;;;;17.08;90.86;68672.66;4905687;29;20032;-74
2022/08/24 02:13:27;;;;;;;12.82;8.75;;;;;;;17.06;90.98;68675.16;4893860;29;20111;-75
2022/08/24 02:15:52;;;;;;;11.30;9.82;;;;;;;17.06;90.99;68675.75;4894703;29;20046;-75
2022/08/24 02:18:18;;;;;;;10.30;9.30;;;;;;;17.05;90.78;68671.34;4893431;29;20037;-75
2022/08/24 02:20:44;;;;;;;12.55;9.90;;;;;;;16.91;91.23;68653.81;4893953;29;20059;-75
2022/08/24 02:23:09;;;;;;;10.55;9.05;;;;;;;16.89;91.84;68651.56;4894161;29;20416;-75
2022/08/24 02:25:35;;;;;;;10.50;9.40;;;;;;;16.79;92.39;68642.25;4892288;29;20608;-75
2022/08/24 02:28:01;;;;;;;11.52;9.40;;;;;;;16.76;92.30;68639.41;4892192;29;20485;-75
2022/08/24 02:30:27;;;;;;;12.75;10.50;;;;;;;16.64;93.10;68623.03;4895287;29;20041;-75
2022/08/24 02:32:52;;;;;;;12.57;10.13;;;;;;;16.61;93.26;68619.59;4894662;29;20148;-75
2022/08/24 02:35:19;;;;;;;11.60;10.45;;;;;;;16.58;93.64;68621.56;4892723;29;20041;-75
2022/08/24 02:37:44;;;;;;;14.18;10.63;;;;;;;16.62;93.47;68621.31;4905538;29;20053;-75
2022/08/24 02:40:11;;;;;;;11.10;9.90;;;;;;;16.66;92.90;68628.56;4894305;29;20058;-75
2022/08/24 02:42:36;;;;;;;10.63;9.35;;;;;;;;;;4894604;29;20049;-76
2022/08/24 02:45:03;;;;;;;11.48;9.57;;;;;;;16.61;92.85;68624.97;4892177;29;20058;-76
2022/08/24 02:47:29;;;;;;;15.20;11.00;;;;;;;16.56;93.67;68616.59;4893456;29;20531;-75
2022/08/24 02:49:55;;;;;;;14.18;11.15;;;;;;;16.54;94.39;68612.19;4894329;29;20044;-76
2022/08/24 02:52:20;;;;;;;13.10;11.10;;;;;;;16.56;93.86;68614.47;4893692;29;20091;-75
2022/08/24 02:54:45;;;;;;;13.90;12.10;;;;;;;;;;4894896;29;20051;-76
2022/08/24 02:57:11;;;;;;;12.18;10.63;;;;;;;16.59;94.25;68617.88;4893124;29;20040;-76
2022/08/24 02:59:36;;;;;;;12.73;10.65;;;;;;;16.71;93.57;68631.00;4895290;29;20096;-75
2022/08/24 03:02:01;;;;;;;13.02;10.25;;;;;;;;;;4893125;29;20044;-75
2022/08/24 03:04:27;;;;;;;11.65;10.48;;;;;;;16.76;92.89;68636.13;4894755;29;20048;-75
2022/08/24 03:06:52;;;;;;;14.20;10.38;;;;;;;16.73;93.15;68633.28;4891692;29;20132;-76
2022/08/24 03:09:18;;;;;;;11.23;9.98;;;;;;;16.72;92.60;68632.16;4893279;29;20040;-76
2022/08/24 03:11:44;;;;;;;11.35;10.15;;;;;;;16.75;92.76;68635.56;4892334;29;20041;-76
2022/08/24 03:14:09;;;;;;;13.27;10.45;;;;;;;;;;4893414;29;20120;-76
2022/08/24 03:16:35;;;;;;;11.35;10.15;;;;;;;;;;4892014;29;20055;-76
2022/08/24 03:19:01;;;;;;;11.77;10.57;;;;;;;16.70;93.76;68629.84;4892610;29;20472;-75
2022/08/24 03:21:26;;;;;;;12.23;9.75;;;;;;;;;;4894033;29;20050;-77
2022/08/24 03:23:52;;;;;;;12.07;9.93;;;;;;;16.62;93.24;68626.69;4893378;29;20049;-77
2022/08/24 03:26:19;;;;;;;12.52;10.68;;;;;;;16.58;93.45;68610.81;4883284;29;20091;-77
2022/08/24 03:28:44;;;;;;;12.52;10.95;;;;;;;;;;4891628;29;20097;-77
2022/08/24 03:31:10;;;;;;;12.80;11.50;;;;;;;16.53;94.09;68610.47;4893186;29;20044;-76
2022/08/24 03:33:35;;;;;;;12.20;11.05;;;;;;;16.49;94.07;68606.50;4892413;29;20051;-77
2022/08/24 03:36:00;;;;;;;12.52;11.32;;;;;;;16.47;94.43;68604.78;4892910;29;20092;-77
2022/08/24 03:38:27;;;;;;;12.55;11.25;;;;;;;16.44;94.16;68601.34;4886934;29;20662;-76
2022/08/24 03:40:52;;;;;;;12.93;11.60;;;;;;;16.39;94.70;68597.75;4894311;29;20584;-77
2022/08/24 03:46:06;;;;;;;15.23;12.25;;;;;;;16.29;95.01;68586.38;4893819;29;20044;-77
2022/08/24 03:48:31;;;;;;;13.95;12.50;;;;;;;16.22;96.26;68576.25;4892404;29;20196;-77
2022/08/24 03:50:56;;;;;;;14.60;13.05;;;;;;;;;;4908417;29;20116;-77
2022/08/24 03:53:22;;;;;;;15.68;12.63;;;;;;;16.23;95.42;68580.09;4891634;29;20049;-77
2022/08/24 03:55:47;;;;;;;13.70;12.27;;;;;;;16.23;95.41;68580.09;4892719;29;20445;-78
2022/08/24 03:58:13;;;;;;;13.73;12.10;;;;;;;16.15;96.08;68570.97;4891342;29;20043;-77
2022/08/24 04:00:41;;;;;;;13.90;12.23;;;;;;;16.16;95.73;68572.13;4891562;29;20097;-77
2022/08/24 04:03:10;;;;;;;13.70;12.30;;;;;;;16.10;96.94;68565.28;4892115;29;20160;-77
2022/08/24 04:05:36;;;;;;;15.60;12.65;;;;;;;;;;4892027;29;20677;-78
2022/08/24 04:08:02;;;;;;;14.10;12.45;;;;;;;16.04;96.07;68558.44;4892252;29;20052;-77
2022/08/24 04:10:28;;;;;;;13.20;11.38;;;;;;;;;;4893616;29;20044;-77
2022/08/24 04:12:53;;;;;;;12.48;11.20;;;;;;;15.95;96.01;68546.63;4894506;29;20044;-77
2022/08/24 04:15:19;;;;;;;13.25;11.50;;;;;;;15.90;96.19;68535.00;4889678;29;20424;-77
2022/08/24 04:17:44;;;;;;;13.32;11.88;;;;;;;15.81;96.71;68530.13;4890800;29;20040;-77
2022/08/24 04:20:10;;;;;;;14.30;11.75;;;;;;;15.78;97.42;68527.81;4892906;29;20072;-77
2022/08/24 04:22:35;;;;;;;15.07;11.32;;;;;;;15.80;96.76;68532.22;4917516;23;20132;-76
2022/08/24 04:25:01;;;;;;;13.00;11.63;;;;;;;15.80;96.97;68529.53;4953145;28;20076;-79
2022/08/24 04:27:27;;;;;;;14.45;11.98;;;;;;;15.77;96.87;68534.19;4957780;28;20546;-79
2022/08/24 04:29:52;;;;;;;12.90;11.57;;;;;;;15.73;96.87;68521.56;4958834;28;20043;-79
2022/08/24 04:32:18;;;;;;;15.98;11.93;;;;;;;15.72;96.62;68521.00;4946963;29;20043;-79
2022/08/24 04:34:45;;;;;;;14.50;13.00;;;;;;;15.72;96.72;68520.44;4932248;29;20122;-78
2022/08/24 04:37:11;;;;;;;14.90;11.80;;;;;;;;;;4931227;29;20043;-79
2022/08/24 04:39:36;;;;;;;14.23;12.75;;;;;;;15.75;96.52;68523.84;4932717;29;20126;-79
2022/08/24 04:42:02;;;;;;;15.65;12.65;;;;;;;15.71;96.99;68521.97;4933452;29;20523;-78
2022/08/24 04:44:28;;;;;;;14.85;13.27;;;;;;;15.71;97.24;68519.88;4929695;29;20054;-79
2022/08/24 04:46:55;;;;;;;15.27;13.68;;;;;;;15.69;96.94;68522.38;4937926;29;20111;-80
2022/08/24 04:49:20;;;;;;;15.23;13.73;;;;;;;15.73;97.30;68521.56;4935977;29;20140;-79
2022/08/24 04:51:46;;;;;;;16.70;14.65;;;;;;;15.74;96.92;68528.09;4942717;29;20067;-80
2022/08/24 04:54:11;;;;;;;17.25;13.80;;;;;;;;;;4915979;29;20047;-80
2022/08/24 04:56:37;;;;;;;16.08;14.38;;;;;;;15.82;96.81;68534.50;4942385;29;20040;-80
2022/08/24 04:59:04;;;;;;;15.93;13.60;;;;;;;15.83;96.33;68538.34;4940957;29;20054;-79
2022/08/24 05:01:31;;;;;;;15.02;13.43;;;;;;;15.87;96.85;68542.31;4946755;29;20466;-80
2022/08/24 05:03:57;;;;;;;17.88;15.35;;;;;;;;;;4948710;29;20036;-80
2022/08/24 05:06:28;;;;;;;19.27;16.00;;;;;;;15.91;96.94;68546.88;4944526;29;20059;-79
2022/08/24 05:08:53;;;;;;;17.77;15.90;;;;;;;15.87;97.07;68542.88;4940945;29;20039;-80
2022/08/24 05:11:20;;;;;;;17.90;14.82;;;;;;;15.93;96.59;68547.03;4943812;29;20047;-80
2022/08/24 05:13:46;;;;;;;18.85;16.83;;;;;;;15.96;96.96;68547.78;4942598;29;20078;-79
2022/08/24 05:16:16;;;;;;;17.85;16.00;;;;;;;16.00;96.87;68551.78;4940400;29;20582;-79
2022/08/24 05:18:42;;;;;;;18.08;16.17;;;;;;;16.02;96.93;68557.31;4942022;29;20040;-79
2022/08/24 05:21:09;;;;;;;18.98;16.10;;;;;;;16.10;96.18;68565.28;4942650;29;20110;-79
2022/08/24 05:23:37;;;;;;;17.05;15.25;;;;;;;16.15;96.22;68570.97;4927479;29;20499;-79
2022/08/24 05:26:24;;;;;;;20.35;17.02;;;;;;;16.21;96.18;68575.69;4943741;29;20066;-79
2022/08/24 05:28:54;;;;;;;18.17;16.20;;;;;;;16.25;96.30;68582.38;4941849;29;20072;-80
2022/08/24 05:31:23;;;;;;;18.63;16.60;;;;;;;16.27;96.41;68576.59;4944930;29;20059;-79
2022/08/24 05:33:49;;;;;;;21.13;17.60;;;;;;;16.35;95.31;68593.78;4943476;29;20103;-79
2022/08/24 05:36:21;;;;;;;18.95;16.98;;;;;;;;;;4931222;29;20507;-79
2022/08/24 05:38:48;;;;;;;17.73;15.85;;;;;;;16.52;94.74;68609.34;4941241;29;20046;-80
2022/08/24 05:41:15;;;;;;;19.52;17.05;;;;;;;16.59;94.68;68617.31;4940799;29;20070;-79
2022/08/24 05:43:41;;;;;;;20.42;17.25;;;;;;;16.70;94.57;68629.84;4946210;29;20055;-80
2022/08/24 05:46:06;;;;;;;17.48;15.77;;;;;;;16.77;93.98;68637.84;4940298;29;20039;-79
2022/08/24 05:48:34;;;;;;;20.40;17.77;;;;;;;16.87;93.22;68649.28;4941345;29;20047;-79
2022/08/24 05:51:00;;;;;;;20.50;17.65;;;;;;;16.97;93.50;68662.22;4940821;29;20070;-79
2022/08/24 05:53:25;;;;;;;20.33;17.88;;;;;;;;;;4939183;29;20051;-80
2022/08/24 05:55:50;;;;;;;18.45;16.30;;;;;;;17.19;92.22;68684.63;4922230;29;20039;-79
2022/08/24 05:58:16;;;;;;;21.33;19.02;;;;;;;;;;4939487;29;20036;-80
2022/08/24 06:00:44;;;;;;;21.17;18.92;;;;;;;17.49;91.26;68723.69;4941887;29;20051;-80
2022/08/24 06:03:11;;;;;;;22.27;20.05;;;;;;;17.63;91.17;68736.38;4942407;29;20051;-80
2022/08/24 06:05:42;;;;;;;23.35;21.05;;;;;;;17.77;90.71;68749.66;4942541;29;20036;-80
2022/08/24 06:08:08;;;;;;;25.63;22.92;;;;;;;17.94;90.60;68767.94;4945880;29;20043;-79
2022/08/24 06:10:43;;;;;;;23.42;21.15;;;;;;;18.08;90.50;68783.94;4947519;29;20046;-79
2022/08/24 06:13:10;;;;;;;24.98;21.80;;;;;;;18.24;89.48;68796.22;4945811;29;20581;-79
2022/08/24 06:15:37;;;;;;;28.23;21.73;;;;;;;18.41;88.65;68823.75;4947183;29;20050;-80
2022/08/24 06:18:02;;;;;;;28.63;25.15;;;;;;;;;;4947967;29;20055;-80
2022/08/24 06:20:28;;;;;;;28.92;25.88;;;;;;;;;;4945561;29;20677;-79
2022/08/24 06:22:53;;;;;;;27.88;24.17;;;;;;;18.89;86.98;68874.72;4944053;29;20044;-80
2022/08/24 06:28:02;;;;;;;25.88;23.30;;;;;;;19.24;86.18;68907.59;4938838;29;20091;-79
2022/08/24 06:30:28;;;;;;;25.02;22.38;;;;;;;19.40;85.64;68931.28;4938714;29;20051;-79
2022/08/24 06:32:53;;;;;;;27.13;24.23;;;;;;;19.58;85.80;68951.84;4937482;29;20075;-79
2022/08/24 06:35:18;;;;;;;27.55;24.55;;;;;;;19.74;85.28;68969.03;4937639;29;20040;-80
2022/08/24 06:37:44;;;;;;;31.38;27.00;;;;;;;19.88;84.37;68985.03;4934879;29;20124;-79
2022/08/24 06:40:10;;;;;;;30.10;26.33;;;;;;;20.03;84.31;69001.63;4939502;29;20069;-79
2022/08/24 06:42:35;;;;;;;31.02;27.75;;;;;;;20.21;83.60;69016.78;4940190;29;20044;-79
2022/08/24 06:45:01;;;;;;;29.20;25.98;;;;;;;20.39;83.45;69042.19;4921618;29;20044;-79
2022/08/24 06:47:27;;;;;;;25.77;23.08;;;;;;;20.51;82.51;69055.34;4941875;29;20048;-79
2022/08/24 06:49:52;;;;;;;29.40;25.23;;;;;;;20.63;80.54;69069.09;4939371;29;20114;-79
2022/08/24 06:52:18;;;;;;;28.33;23.83;;;;;;;20.80;80.57;69087.97;4938311;29;20067;-79
2022/08/24 06:54:43;;;;;;;29.00;25.40;;;;;;;20.97;81.11;69106.84;4942210;29;20040;-79
2022/08/24 06:57:08;;;;;;;26.80;23.90;;;;;;;21.12;78.93;69123.44;4938855;29;20068;-79
2022/08/24 06:59:34;;;;;;;26.02;23.13;;;;;;;21.26;78.17;69134.03;4941994;29;20047;-79
2022/08/24 07:01:59;;;;;;;25.85;23.15;;;;;;;;;;4941012;29;20046;-79
2022/08/24 07:04:25;;;;;;;25.02;22.50;;;;;;;;;;4940395;29;20100;-79
2022/08/24 07:06:51;;;;;;;28.00;21.60;;;;;;;;;;4923335;29;20091;-79
2022/08/24 07:09:17;;;;;;;21.98;19.48;;;;;;;21.88;74.76;69208.72;4940095;29;20119;-79
2022/08/24 07:11:42;;;;;;;23.88;18.90;;;;;;;22.01;74.55;69217.59;4941059;29;20048;-79
2022/08/24 07:14:08;;;;;;;20.02;17.75;;;;;;;22.21;73.69;69240.53;4939486;29;20126;-79
2022/08/24 07:16:34;;;;;;;15.57;12.57;;;;;;;22.40;70.65;69261.13;4941855;29;20050;-79
2022/08/24 07:19:01;;;;;;;14.07;12.45;;;;;;;22.57;69.29;69285.47;4941654;29;20761;-79
2022/08/24 07:21:27;;;;;;;17.80;13.35;;;;;;;22.77;69.85;69302.38;4941890;29;20047;-79
2022/08/24 07:23:56;;;;;;;13.60;10.88;;;;;;;;;;4941948;29;20052;-79
2022/08/24 07:26:24;;;;;;;15.35;11.10;;;;;;;23.02;66.09;69336.44;4939558;29;20063;-79
2022/08/24 07:28:50;;;;;;;16.75;10.63;;;;;;;;;;4942488;29;20042;-79
2022/08/24 07:31:16;;;;;;;14.90;10.25;;;;;;;23.22;65.22;69358.81;4940248;29;20063;-79
2022/08/24 07:33:41;;;;;;;13.50;10.13;;;;;;;23.28;64.99;69359.66;4940489;29;20062;-79
2022/08/24 07:36:06;;;;;;;17.27;10.70;;;;;;;23.46;64.23;69379.72;4939407;29;20102;-79
2022/08/24 07:38:32;;;;;;;16.90;10.75;;;;;;;23.46;64.59;69380.28;4941302;29;20093;-79
2022/08/24 07:40:58;;;;;;;14.70;9.45;;;;;;;;;;4941987;29;20111;-79
2022/08/24 07:43:24;;;;;;;13.55;10.57;;;;;;;;;;4941279;29;20051;-79
2022/08/24 07:45:50;;;;;;;14.25;9.43;;;;;;;23.83;63.19;69421.56;4941272;29;20752;-79
2022/08/24 07:48:16;;;;;;;12.27;9.10;;;;;;;23.87;63.15;69423.44;4944315;29;20040;-79
2022/08/24 07:50:41;;;;;;;17.67;9.15;;;;;;;;;;4941699;29;20511;-79
2022/08/24 07:53:07;;;;;;;17.05;8.77;;;;;;;;;;4940657;29;20043;-79
2022/08/24 07:55:32;;;;;;;14.85;8.52;;;;;;;;;;4941614;29;20051;-79
2022/08/24 07:57:58;;;;;;;13.82;8.18;;;;;;;24.37;61.63;69481.75;4941017;29;20047;-79
2022/08/24 08:00:24;;;;;;;12.43;7.10;;;;;;;24.57;61.57;69504.13;4940225;29;20134;-79
2022/08/24 08:02:49;;;;;;;12.35;7.00;;;;;;;24.77;61.36;69527.06;4940169;29;20678;-80
2022/08/24 08:05:17;;;;;;;14.65;6.90;;;;;;;24.95;59.58;69547.72;4940504;29;20032;-80
2022/08/24 08:07:42;;;;;;;12.67;6.53;;;;;;;25.04;59.19;69557.47;4940527;29;20043;-80
2022/08/24 08:10:09;;;;;;;12.65;6.07;;;;;;;;;;4938268;29;20050;-78
2022/08/24 08:12:35;;;;;;;8.13;5.47;;;;;;;25.10;57.89;69569.25;4943842;29;20118;-79
2022/08/24 08:15:00;;;;;;;8.65;4.70;;;;;;;25.14;57.98;69568.38;4943815;29;20059;-79
2022/08/24 08:17:26;;;;;;;9.32;5.38;;;;;;;25.18;58.24;69573.56;4944211;29;20044;-79
2022/08/24 08:19:52;;;;;;;9.35;5.40;;;;;;;25.40;57.99;69598.22;4926981;29;20122;-80
2022/08/24 08:25:02;;;;;;;9.38;6.97;;;;;;;25.66;57.87;69632.38;4943643;29;20364;-79
2022/08/24 08:27:28;;;;;;;9.43;6.00;;;;;;;;;;4946056;29;20059;-79
2022/08/24 08:29:54;;;;;;;8.88;6.13;;;;;;;25.83;57.44;69643.16;4943042;29;20055;-79
2022/08/24 08:32:20;;;;;;;8.02;5.53;;;;;;;25.94;56.21;69655.19;4940680;29;20031;-79
2022/08/24 08:34:45;;;;;;;8.82;4.38;;;;;;;;;;4929746;29;20040;-79
2022/08/24 08:37:12;;;;;;;5.80;3.33;;;;;;;26.04;55.87;69666.69;4937093;29;20047;-79
2022/08/24 08:39:37;;;;;;;7.95;4.68;;;;;;;;;;4940364;29;20059;-79
2022/08/24 08:42:21;;;;;;;9.20;4.90;;;;;;;26.04;55.79;69670.00;4941146;29;20039;-79
2022/08/24 08:45:02;;;;;;;6.30;4.35;;;;;;;26.09;55.93;69675.13;4937202;29;20522;-79
2022/08/24 08:47:34;;;;;;;7.25;3.95;;;;;;;26.07;55.44;69672.84;4938943;29;20048;-79
2022/08/24 08:50:03;;;;;;;7.95;3.50;;;;;;;26.29;56.77;69703.56;4943439;29;20047;-79
2022/08/24 08:52:58;;;;;;;4.97;2.58;;;;;;;26.49;54.76;69711.72;4939021;29;20071;-79
2022/08/24 08:55:32;;;;;;;5.45;2.75;;;;;;;26.62;53.90;69731.56;4940162;29;21627;-79
2022/08/24 08:58:16;;;;;;;5.80;2.85;;;;;;;26.75;54.44;69749.22;4941759;29;20428;-79
2022/08/24 09:01:06;;;;;;;4.45;2.47;;;;;;;26.80;55.17;69754.41;4938286;29;20048;-79
2022/08/24 09:03:51;;;;;;;3.63;2.10;;;;;;;;;;4937550;29;20599;-79
2022/08/24 09:06:30;;;;;;;4.90;2.35;;;;;;;26.80;53.66;69754.97;4901411;29;20052;-79
2022/08/24 09:09:17;;;;;;;6.68;2.25;;;;;;;26.90;53.16;69765.88;4940966;29;20047;-79
2022/08/24 09:11:48;;;;;;;4.72;2.17;;;;;;;27.14;52.63;69793.47;4939599;29;20750;-79
2022/08/24 09:14:17;;;;;;;4.15;2.10;;;;;;;27.09;52.44;69784.97;4938049;29;20066;-79
2022/08/24 09:16:48;;;;;;;3.70;1.77;;;;;;;;;;4938307;29;20475;-80
2022/08/24 09:19:19;;;;;;;3.13;2.00;;;;;;;27.20;51.68;69800.38;4940147;29;20538;-79
2022/08/24 09:21:48;;;;;;;4.32;2.33;;;;;;;27.34;51.34;69820.78;4941516;29;20257;-80
2022/08/24 09:24:42;;;;;;;3.33;1.73;;;;;;;27.29;52.41;69804.09;4941250;29;20044;-79
2022/08/24 09:27:45;;;;;;;3.17;1.70;;;;;;;27.38;51.96;69814.44;4940143;29;20046;-79
2022/08/24 09:30:19;;;;;;;3.78;1.77;;;;;;;27.73;50.07;69856.81;4923640;29;20044;-79
2022/08/24 09:33:13;;;;;;;2.42;1.70;;;;;;;27.62;50.24;69844.75;4940332;29;20043;-79
2022/08/24 09:36:04;;;;;;;2.13;1.38;;;;;;;27.57;50.58;69841.72;4955170;29;20063;-79
2022/08/24 09:38:48;;;;;;;5.00;1.70;;;;;;;27.62;51.24;69846.91;4940885;29;20087;-79
2022/08/24 09:41:25;;;;;;;6.63;1.50;;;;;;;27.59;50.67;69844.03;4942693;29;20074;-79
2022/08/24 09:44:09;;;;;;;3.20;1.52;;;;;;;27.77;49.34;69863.56;4944173;29;20046;-79
2022/08/24 09:47:09;;;;;;;3.63;1.20;;;;;;;27.66;47.72;69856.97;4944887;29;20055;-79
2022/08/24 09:49:50;;;;;;;2.45;1.33;;;;;;;27.70;49.04;69853.34;4945771;29;20130;-79
2022/08/24 09:52:49;;;;;;;4.00;1.70;;;;;;;27.99;49.29;69888.88;4941291;29;20050;-79
2022/08/24 09:55:14;;;;;;;3.10;1.75;;;;;;;28.01;48.98;69888.44;4945908;29;20040;-79
2022/08/24 09:58:04;;;;;;;4.22;1.58;;;;;;;28.22;48.59;69912.00;4944039;29;20357;-79
2022/08/24 10:00:36;;;;;;;6.80;1.80;;;;;;;28.35;48.26;69923.63;4943770;29;20052;-79
2022/08/24 10:03:14;;;;;;;4.07;1.75;;;;;;;28.24;48.19;69914.31;4944812;29;20508;-79
2022/08/24 10:06:18;;;;;;;2.65;1.70;;;;;;;28.40;48.02;69934.28;4942834;29;20080;-79
2022/08/24 10:09:08;;;;;;;3.67;1.40;;;;;;;28.60;47.20;69956.72;4881116;29;20048;-77
2022/08/24 10:12:01;;;;;;;1.92;1.20;;;;;;;28.63;46.67;69958.03;4915357;29;20048;-77
2022/08/24 10:14:44;;;;;;;3.17;1.50;;;;;;;28.70;47.32;69963.31;4925560;29;20095;-77
2022/08/24 10:17:31;;;;;;;3.42;1.50;;;;;;;28.66;46.74;69961.47;4925970;29;20058;-77
2022/08/24 10:20:02;;;;;;;8.35;1.50;;;;;;;28.94;46.91;69995.25;4926858;29;20043;-77
2022/08/24 10:23:02;;;;;;;2.85;1.40;;;;;;;28.87;46.23;69984.47;4916283;29;20138;-77
2022/08/24 10:25:54;;;;;;;3.40;1.27;;;;;;;29.05;46.91;70007.34;4909302;29;20050;-77
2022/08/24 10:28:48;;;;;;;3.72;1.40;;;;;;;29.22;45.39;70024.72;4930688;29;20678;-77
2022/08/24 10:31:50;;;;;;;3.13;1.05;;;;;;;29.17;45.48;70012.94;4935597;29;20039;-77
2022/08/24 10:34:22;;;;;;;3.28;1.20;;;;;;;29.23;46.08;70025.31;4931302;29;20527;-77
2022/08/24 10:37:02;;;;;;;2.30;1.20;;;;;;;29.37;45.11;70041.41;4932508;29;20052;-77
2022/08/24 10:39:41;;;;;;;4.20;1.40;;;;;;;29.51;45.19;70053.63;4933411;29;20043;-78
2022/08/24 10:45:37;;;;;;;3.70;1.60;;;;;;;29.37;45.36;70038.09;4932570;29;20043;-77
2022/08/24 10:48:30;;;;;;;4.18;1.30;;;;;;;29.71;45.38;70082.16;4915678;29;20676;-78
2022/08/24 10:51:15;;;;;;;2.55;1.15;;;;;;;30.02;43.11;70111.19;4930296;29;20156;-78
2022/08/24 10:53:47;;;;;;;2.55;1.27;;;;;;;29.59;43.00;70063.41;4930183;29;20714;-78
2022/08/24 10:56:15;;;;;;;4.18;1.27;;;;;;;29.53;44.97;70058.69;4927010;29;20083;-78
2022/08/24 10:58:48;;;;;;;;;;;;;;;29.73;44.00;70078.41;4929151;29;20467;-78
2022/08/24 11:01:16;;;;;;;3.67;1.27;;;;;;;29.63;44.05;70070.78;4927983;29;20529;-77
2022/08/24 11:03:49;;;;;;;;;;;;;;;29.65;43.22;70069.75;4928281;29;20106;-78
2022/08/24 11:06:17;;;;;;;1.88;1.10;;;;;;;29.69;42.96;70074.34;4926120;29;19923;-78
2022/08/24 11:09:13;;;;;;;5.65;1.30;;;;;;;29.86;43.62;70096.09;4939408;29;20503;-78
2022/08/24 11:11:45;;;;;;;2.38;1.15;;;;;;;30.27;42.99;70142.75;4928987;29;20072;-77
2022/08/24 11:14:28;;;;;;;3.50;1.27;;;;;;;30.43;42.44;70160.00;4917729;29;20087;-78
2022/08/24 11:17:16;;;;;;;1.95;1.10;;;;;;;30.46;41.90;70160.69;4921604;29;20047;-77
2022/08/24 11:19:43;;;;;;;3.08;1.38;;;;;;;30.63;41.62;70183.03;4941202;28;20043;-77
2022/08/24 11:22:26;;;;;;;2.53;1.20;;;;;;;;;;4934161;29;20042;-78
2022/08/24 11:24:57;;;;;;;2.10;1.10;;;;;;;30.69;41.08;70192.66;4929684;29;20043;-78
2022/08/24 11:27:45;;;;;;;4.85;1.90;;;;;;;31.00;39.55;70219.00;4927328;29;20048;-78
2022/08/24 11:30:18;;;;;;;3.65;1.45;;;;;;;30.95;40.08;70216.56;4932386;29;20106;-78
2022/08/24 11:32:46;;;;;;;4.50;1.70;;;;;;;31.05;39.26;70230.25;4932789;29;20403;-78
2022/08/24 11:35:17;;;;;;;5.28;1.63;;;;;;;31.15;38.81;70241.75;4930763;29;20047;-78
2022/08/24 11:37:43;;;;;;;3.85;1.58;;;;;;;31.17;38.63;70240.75;4931510;29;20048;-78
2022/08/24 11:40:10;;;;;;;5.22;1.80;;;;;;;31.15;38.23;70241.75;4932420;29;20581;-78
2022/08/24 11:42:41;;;;;;;2.55;1.50;;;;;;;31.20;38.39;70244.78;4928416;29;20047;-78
2022/08/24 11:45:29;;;;;;;6.70;1.80;;;;;;;31.30;38.43;70255.13;4929395;29;20123;-78
2022/08/24 11:48:02;;;;;;;4.20;1.60;;;;;;;31.20;38.55;70244.78;4893683;29;20051;-78
2022/08/24 11:50:45;;;;;;;2.63;1.40;;;;;;;31.27;38.79;70251.69;4928055;29;20130;-78
2022/08/24 11:53:23;;;;;;;3.67;1.35;;;;;;;31.47;38.48;70274.75;4931085;29;20554;-78
2022/08/24 11:55:48;;;;;;;5.28;1.45;;;;;;;31.29;38.03;70254.56;4928657;29;20138;-78
2022/08/24 11:58:38;;;;;;;5.38;1.33;;;;;;;31.44;37.67;70276.78;4931219;29;20131;-78
2022/08/24 12:01:13;;;;;;;4.38;1.33;;;;;;;31.23;38.96;70248.22;4926148;29;20043;-78
2022/08/24 12:03:54;;;;;;;3.72;1.30;;;;;;;31.24;38.59;70254.88;4926845;29;20044;-78
2022/08/24 12:06:58;;;;;;;2.47;1.30;;;;;;;31.37;38.54;70269.31;4928741;29;20039;-77
2022/08/24 12:09:26;;;;;;;3.55;1.60;;;;;;;31.59;37.26;70293.50;4931943;29;20494;-78
2022/08/24 12:12:26;;;;;;;5.55;1.85;;;;;;;31.51;37.99;70276.59;4931580;29;20071;-78
2022/08/24 12:14:51;;;;;;;4.38;1.63;;;;;;;31.41;37.02;70265.66;4927428;29;20083;-78
2022/08/24 12:17:25;;;;;;;5.65;1.60;;;;;;;31.36;37.98;70265.41;4927580;29;20067;-78
2022/08/24 12:20:00;;;;;;;3.50;1.38;;;;;;;31.44;37.12;70271.28;4923615;29;20039;-78